Time,TemperatureF,DewpointF,PressureIn,WindDirection,WindDirectionDegrees,WindSpeedMPH,WindSpeedGustMPH,Humidity,HourlyPrecipIn,Conditions,Clouds,dailyrainin,SoftwareType,DateUTC
2013-04-04 00:12:00,56.7,56.0,29.96,ESE,109,1.0,4.0,96,0.00,,,0.00,weatherlink.com 1.10,2013-04-04 05:12:00,
2013-04-04 00:26:00,56.5,55.0,29.95,East,89,3.0,5.0,96,0.00,,,0.00,weatherlink.com 1.10,2013-04-04 05:26:00,
2013-04-04 00:57:00,56.3,56.0,29.93,East,84,1.0,4.0,97,0.00,,,0.00,weatherlink.com 1.10,2013-04-04 05:57:00,
2013-04-04 01:12:00,56.1,55.0,29.93,East,94,0.0,4.0,97,0.00,,,0.00,weatherlink.com 1.10,2013-04-04 06:12:00,
2013-04-04 01:27:00,56.0,55.0,29.93,ESE,122,1.0,4.0,97,0.00,,,0.00,weatherlink.com 1.10,2013-04-04 06:27:00,
2013-04-04 01:42:00,55.9,55.0,29.93,NNE,23,1.0,3.0,97,0.00,,,0.00,weatherlink.com 1.10,2013-04-04 06:42:00,
2013-04-04 01:57:00,55.8,55.0,29.92,SE,135,0.0,3.0,97,0.00,,,0.00,weatherlink.com 1.10,2013-04-04 06:57:00,
2013-04-04 02:12:00,55.8,55.0,29.92,East,97,2.0,3.0,97,0.00,,,0.00,weatherlink.com 1.10,2013-04-04 07:12:00,
2013-04-04 02:27:00,55.7,55.0,29.90,SSW,210,0.0,4.0,97,0.00,,,0.00,weatherlink.com 1.10,2013-04-04 07:27:00,
2013-04-04 02:42:00,55.7,55.0,29.91,East,96,2.0,5.0,97,0.00,,,0.00,weatherlink.com 1.10,2013-04-04 07:42:00,
2013-04-04 02:57:00,55.7,55.0,29.90,SSE,163,0.0,4.0,97,0.00,,,0.00,weatherlink.com 1.10,2013-04-04 07:57:00,
2013-04-04 03:12:00,55.6,55.0,29.89,NE,56,1.0,4.0,97,0.00,,,0.00,weatherlink.com 1.10,2013-04-04 08:12:00,
2013-04-04 03:27:00,55.5,55.0,29.89,SSE,149,0.0,4.0,98,0.00,,,0.00,weatherlink.com 1.10,2013-04-04 08:27:00,
2013-04-04 03:42:00,55.5,55.0,29.88,East,86,3.0,5.0,98,0.00,,,0.00,weatherlink.com 1.10,2013-04-04 08:42:00,
2013-04-04 03:57:00,55.6,55.0,29.88,ENE,77,0.0,5.0,98,0.00,,,0.00,weatherlink.com 1.10,2013-04-04 08:57:00,
2013-04-04 04:12:00,55.7,55.0,29.87,East,84,1.0,5.0,98,0.00,,,0.00,weatherlink.com 1.10,2013-04-04 09:12:00,
2013-04-04 04:27:00,55.8,55.0,29.88,ENE,68,2.0,5.0,98,0.00,,,0.00,weatherlink.com 1.10,2013-04-04 09:27:00,
2013-04-04 04:42:00,56.0,56.0,29.88,ENE,60,0.0,5.0,98,0.00,,,0.00,weatherlink.com 1.10,2013-04-04 09:42:00,
2013-04-04 04:57:00,56.3,56.0,29.88,East,89,0.0,5.0,98,0.00,,,0.00,weatherlink.com 1.10,2013-04-04 09:57:00,
2013-04-04 05:12:00,56.5,56.0,29.88,East,86,2.0,4.0,98,0.00,,,0.00,weatherlink.com 1.10,2013-04-04 10:12:00,
2013-04-04 05:27:00,56.6,56.0,29.87,East,83,2.0,4.0,98,0.00,,,0.00,weatherlink.com 1.10,2013-04-04 10:27:00,
2013-04-04 05:42:00,56.8,56.0,29.88,East,96,3.0,6.0,98,0.00,,,0.00,weatherlink.com 1.10,2013-04-04 10:42:00,
2013-04-04 05:57:00,56.9,56.0,29.88,ENE,75,1.0,3.0,98,0.00,,,0.00,weatherlink.com 1.10,2013-04-04 10:57:00,
2013-04-04 06:12:00,57.1,57.0,29.89,SE,141,0.0,3.0,98,0.00,,,0.00,weatherlink.com 1.10,2013-04-04 11:12:00,
2013-04-04 06:27:00,57.2,57.0,29.90,East,86,0.0,1.0,98,0.00,,,0.00,weatherlink.com 1.10,2013-04-04 11:27:00,
2013-04-04 06:42:00,57.3,57.0,29.91,ESE,103,0.0,0.0,98,0.00,,,0.00,weatherlink.com 1.10,2013-04-04 11:42:00,
2013-04-04 06:57:00,57.4,57.0,29.91,SE,129,0.0,1.0,98,0.00,,,0.00,weatherlink.com 1.10,2013-04-04 11:57:00,
2013-04-04 07:12:00,57.5,57.0,29.92,East,82,0.0,2.0,98,0.00,,,0.00,weatherlink.com 1.10,2013-04-04 12:12:00,
2013-04-04 07:27:00,57.6,57.0,29.92,East,79,2.0,2.0,98,0.00,,,0.00,weatherlink.com 1.10,2013-04-04 12:27:00,
2013-04-04 07:57:00,57.8,57.0,29.92,East,91,1.0,1.0,98,0.01,,,0.01,weatherlink.com 1.10,2013-04-04 12:57:00,
2013-04-04 08:12:00,57.9,57.0,29.92,ENE,73,0.0,3.0,98,0.01,,,0.01,weatherlink.com 1.10,2013-04-04 13:12:00,
2013-04-04 08:27:00,58.1,58.0,29.93,WNW,284,1.0,3.0,98,0.01,,,0.01,weatherlink.com 1.10,2013-04-04 13:27:00,
2013-04-04 08:42:00,58.2,58.0,29.92,East,86,0.0,2.0,98,0.00,,,0.01,weatherlink.com 1.10,2013-04-04 13:42:00,
2013-04-04 08:57:00,58.3,58.0,29.93,ESE,115,2.0,2.0,98,0.00,,,0.01,weatherlink.com 1.10,2013-04-04 13:57:00,
2013-04-04 09:12:00,58.6,58.0,29.93,East,82,1.0,2.0,98,0.01,,,0.02,weatherlink.com 1.10,2013-04-04 14:12:00,
2013-04-04 09:27:00,58.4,58.0,29.93,East,85,1.0,2.0,98,0.01,,,0.02,weatherlink.com 1.10,2013-04-04 14:27:00,
2013-04-04 09:42:00,58.7,58.0,29.93,ENE,77,0.0,2.0,98,0.01,,,0.02,weatherlink.com 1.10,2013-04-04 14:42:00,
2013-04-04 10:12:00,59.0,58.0,29.93,East,89,0.0,5.0,96,0.00,,,0.02,weatherlink.com 1.10,2013-04-04 15:12:00,
2013-04-04 10:28:00,59.6,58.0,29.93,East,89,3.0,5.0,95,0.00,,,0.02,weatherlink.com 1.10,2013-04-04 15:28:00,
2013-04-04 10:42:00,59.5,58.0,29.94,East,96,1.0,4.0,95,0.00,,,0.02,weatherlink.com 1.10,2013-04-04 15:42:00,
2013-04-04 10:57:00,59.3,58.0,29.94,East,92,3.0,6.0,94,0.00,,,0.02,weatherlink.com 1.10,2013-04-04 15:57:00,
2013-04-04 11:12:00,59.2,58.0,29.94,East,82,2.0,6.0,95,0.00,,,0.02,weatherlink.com 1.10,2013-04-04 16:12:00,
2013-04-04 11:27:00,59.5,58.0,29.94,ENE,77,1.0,5.0,94,0.00,,,0.02,weatherlink.com 1.10,2013-04-04 16:27:00,
2013-04-04 11:42:00,59.7,58.0,29.94,ENE,69,2.0,4.0,94,0.00,,,0.02,weatherlink.com 1.10,2013-04-04 16:42:00,
2013-04-04 11:57:00,59.5,58.0,29.93,ESE,105,1.0,4.0,95,0.00,,,0.02,weatherlink.com 1.10,2013-04-04 16:57:00,
2013-04-04 12:12:00,59.5,58.0,29.92,ENE,71,2.0,3.0,95,0.00,,,0.02,weatherlink.com 1.10,2013-04-04 17:12:00,
2013-04-04 12:27:00,60.0,58.0,29.91,East,79,3.0,5.0,94,0.00,,,0.02,weatherlink.com 1.10,2013-04-04 17:27:00,
2013-04-04 12:42:00,59.9,58.0,29.91,East,101,1.0,2.0,94,0.00,,,0.02,weatherlink.com 1.10,2013-04-04 17:42:00,
2013-04-04 12:57:00,60.4,59.0,29.91,ESE,112,3.0,4.0,95,0.00,,,0.02,weatherlink.com 1.10,2013-04-04 17:57:00,
2013-04-04 13:13:00,60.9,59.0,29.91,East,82,3.0,3.0,94,0.00,,,0.02,weatherlink.com 1.10,2013-04-04 18:13:00,
2013-04-04 13:28:00,61.3,59.0,29.90,NE,54,1.0,2.0,93,0.00,,,0.02,weatherlink.com 1.10,2013-04-04 18:28:00,
2013-04-04 13:43:00,61.1,59.0,29.90,ESE,113,0.0,2.0,93,0.00,,,0.02,weatherlink.com 1.10,2013-04-04 18:43:00,
2013-04-04 13:58:00,61.4,59.0,29.90,East,99,1.0,2.0,92,0.00,,,0.02,weatherlink.com 1.10,2013-04-04 18:58:00,
2013-04-04 14:13:00,61.2,59.0,29.89,SE,131,1.0,2.0,93,0.00,,,0.02,weatherlink.com 1.10,2013-04-04 19:13:00,
2013-04-04 14:28:00,61.3,59.0,29.89,East,90,0.0,1.0,93,0.00,,,0.02,weatherlink.com 1.10,2013-04-04 19:28:00,
2013-04-04 14:43:00,61.4,60.0,29.89,WNW,297,0.0,1.0,94,0.00,,,0.02,weatherlink.com 1.10,2013-04-04 19:43:00,
2013-04-04 15:01:00,61.1,60.0,29.89,WNW,297,0.0,0.0,95,0.00,,,0.02,weatherlink.com 1.10,2013-04-04 20:01:00,
2013-04-04 15:13:00,60.9,60.0,29.88,East,91,0.0,1.0,95,0.00,,,0.02,weatherlink.com 1.10,2013-04-04 20:13:00,
2013-04-04 15:28:00,61.1,60.0,29.88,East,94,1.0,1.0,96,0.00,,,0.02,weatherlink.com 1.10,2013-04-04 20:28:00,
2013-04-04 15:43:00,61.1,60.0,29.88,East,90,0.0,2.0,97,0.00,,,0.02,weatherlink.com 1.10,2013-04-04 20:43:00,
2013-04-04 15:58:00,61.2,60.0,29.88,ESE,120,0.0,2.0,96,0.00,,,0.02,weatherlink.com 1.10,2013-04-04 20:58:00,
2013-04-04 16:13:00,61.4,61.0,29.87,ESE,105,0.0,1.0,97,0.00,,,0.02,weatherlink.com 1.10,2013-04-04 21:13:00,
2013-04-04 16:28:00,62.2,61.0,29.86,WSW,238,0.0,3.0,95,0.00,,,0.02,weatherlink.com 1.10,2013-04-04 21:28:00,
2013-04-04 16:43:00,64.0,62.0,29.86,East,92,1.0,3.0,92,0.00,,,0.02,weatherlink.com 1.10,2013-04-04 21:43:00,
2013-04-04 16:58:00,64.5,61.0,29.86,SSE,149,0.0,4.0,89,0.00,,,0.02,weatherlink.com 1.10,2013-04-04 21:58:00,
2013-04-04 17:13:00,65.3,61.0,29.86,ENE,77,2.0,3.0,87,0.00,,,0.02,weatherlink.com 1.10,2013-04-04 22:13:00,
2013-04-04 17:43:00,64.5,61.0,29.85,East,82,2.0,2.0,89,0.00,,,0.02,weatherlink.com 1.10,2013-04-04 22:43:00,
2013-04-04 19:13:00,59.5,58.0,29.85,East,81,2.0,4.0,93,0.00,,,0.02,weatherlink.com 1.10,2013-04-05 00:13:00,
2013-04-04 19:28:00,59.1,57.0,29.85,ENE,75,2.0,7.0,93,0.00,,,0.02,weatherlink.com 1.10,2013-04-05 00:28:00,
2013-04-04 19:43:00,58.4,57.0,29.85,East,79,1.0,4.0,94,0.00,,,0.02,weatherlink.com 1.10,2013-04-05 00:43:00,
2013-04-04 19:59:00,58.2,57.0,29.85,ESE,105,0.0,3.0,94,0.00,,,0.02,weatherlink.com 1.10,2013-04-05 00:59:00,
2013-04-04 20:59:00,57.2,56.0,29.87,East,88,1.0,2.0,94,0.00,,,0.02,weatherlink.com 1.10,2013-04-05 01:59:00,
2013-04-04 21:14:00,56.9,55.0,29.87,ENE,73,0.0,3.0,94,0.00,,,0.02,weatherlink.com 1.10,2013-04-05 02:14:00,
2013-04-04 21:29:00,56.6,55.0,29.87,WNW,288,0.0,2.0,95,0.00,,,0.02,weatherlink.com 1.10,2013-04-05 02:29:00,
2013-04-04 21:44:00,56.1,55.0,29.88,WNW,288,1.0,5.0,95,0.00,,,0.02,weatherlink.com 1.10,2013-04-05 02:44:00,
2013-04-04 21:59:00,55.8,54.0,29.89,West,268,1.0,4.0,95,0.00,,,0.02,weatherlink.com 1.10,2013-04-05 02:59:00,
2013-04-04 22:14:00,55.4,54.0,29.89,NW,322,1.0,3.0,95,0.00,,,0.02,weatherlink.com 1.10,2013-04-05 03:14:00,
2013-04-04 22:29:00,55.1,54.0,29.89,WNW,301,3.0,3.0,95,0.00,,,0.02,weatherlink.com 1.10,2013-04-05 03:29:00,
2013-04-04 22:44:00,54.9,54.0,29.89,West,277,0.0,2.0,96,0.00,,,0.02,weatherlink.com 1.10,2013-04-05 03:44:00,
2013-04-04 22:59:00,54.7,54.0,29.89,NW,315,0.0,3.0,96,0.00,,,0.02,weatherlink.com 1.10,2013-04-05 03:59:00,
2013-04-04 23:15:00,54.4,53.0,29.90,WNW,301,1.0,4.0,96,0.00,,,0.02,weatherlink.com 1.10,2013-04-05 04:15:00,
2013-04-04 23:29:00,54.1,53.0,29.90,East,98,1.0,3.0,96,0.00,,,0.02,weatherlink.com 1.10,2013-04-05 04:29:00,
2013-04-04 23:44:00,53.8,53.0,29.89,WNW,298,1.0,4.0,96,0.00,,,0.02,weatherlink.com 1.10,2013-04-05 04:44:00,
2013-04-04 23:59:00,53.5,53.0,29.89,NNE,29,0.0,3.0,97,0.00,,,0.02,weatherlink.com 1.10,2013-04-05 04:59:00,